createdAt,value
2023-05-14T00:01:42.755Z,4.82
2023-05-14T00:04:09.591Z,5.29
2023-05-14T00:06:36.273Z,5.25
2023-05-14T00:09:03.045Z,4.78
2023-05-14T00:11:29.731Z,4.84
2023-05-14T00:13:56.342Z,4.30
2023-05-14T00:16:22.986Z,3.95
2023-05-14T00:18:49.703Z,4.06
2023-05-14T00:21:16.342Z,3.92
2023-05-14T00:23:42.961Z,3.90
2023-05-14T00:26:09.557Z,3.61
2023-05-14T00:28:36.206Z,4.12
2023-05-14T00:31:02.831Z,3.98
2023-05-14T00:33:29.528Z,4.11
2023-05-14T00:35:56.120Z,4.11
2023-05-14T00:38:22.786Z,4.03
2023-05-14T00:40:49.470Z,3.90
2023-05-14T00:43:16.107Z,4.19
2023-05-14T00:45:42.697Z,4.27
2023-05-14T00:50:36.234Z,4.46
2023-05-14T00:53:02.847Z,4.11
2023-05-14T00:55:30.318Z,4.35
2023-05-14T00:57:56.971Z,4.52
2023-05-14T01:00:23.833Z,4.60
2023-05-14T01:02:50.661Z,4.54
2023-05-14T01:05:17.341Z,4.16
2023-05-14T01:07:57.992Z,4.60
2023-05-14T01:10:36.256Z,4.34
2023-05-14T01:13:10.966Z,5.15
2023-05-14T01:15:37.829Z,4.74
2023-05-14T01:18:07.035Z,4.60
2023-05-14T01:20:33.631Z,4.59
2023-05-14T01:23:00.328Z,4.62
2023-05-14T01:25:27.006Z,4.45
2023-05-14T01:28:01.239Z,4.45
2023-05-14T01:30:38.065Z,4.42
2023-05-14T01:33:10.803Z,4.52
2023-05-14T01:35:37.507Z,4.54
2023-05-14T01:38:05.366Z,4.36
2023-05-14T01:40:32.016Z,4.59
2023-05-14T01:42:58.741Z,4.63
2023-05-14T01:45:25.518Z,4.77
2023-05-14T01:47:52.245Z,4.54
2023-05-14T01:50:18.857Z,4.95
2023-05-14T01:52:45.483Z,4.91
2023-05-14T01:55:12.098Z,4.48
2023-05-14T01:57:38.706Z,4.48
2023-05-14T02:00:06.072Z,4.61
2023-05-14T02:02:32.736Z,5.12
2023-05-14T02:04:59.386Z,5.34
2023-05-14T02:07:26.006Z,5.43
2023-05-14T02:09:52.681Z,5.51
2023-05-14T02:12:19.330Z,5.76
2023-05-14T02:14:45.965Z,5.24
2023-05-14T02:17:12.571Z,5.08
2023-05-14T02:19:39.157Z,5.60
2023-05-14T02:22:05.765Z,5.48
2023-05-14T02:24:32.412Z,5.16
2023-05-14T02:26:59.088Z,5.46
2023-05-14T02:29:25.703Z,5.28
2023-05-14T02:31:52.405Z,5.29
2023-05-14T02:34:19.110Z,5.24
2023-05-14T02:36:45.766Z,5.14
2023-05-14T02:39:12.361Z,4.85
2023-05-14T02:41:38.982Z,5.25
2023-05-14T02:44:05.570Z,5.49
2023-05-14T02:46:32.360Z,5.45
2023-05-14T02:48:59.100Z,5.33
2023-05-14T02:51:25.718Z,5.58
2023-05-14T02:53:52.301Z,5.79
2023-05-14T02:56:18.952Z,5.58
2023-05-14T02:58:45.549Z,5.78
2023-05-14T03:01:12.285Z,6.00
2023-05-14T03:03:39.674Z,5.73
2023-05-14T03:06:06.813Z,5.54
2023-05-14T03:08:33.517Z,5.77
2023-05-14T03:11:00.158Z,5.62
2023-05-14T03:13:26.832Z,5.05
2023-05-14T03:15:53.493Z,4.93
2023-05-14T03:18:20.354Z,5.00
2023-05-14T03:20:46.931Z,4.94
2023-05-14T03:23:14.783Z,5.13
2023-05-14T03:25:41.503Z,5.31
2023-05-14T03:28:08.139Z,5.53
2023-05-14T03:30:34.892Z,5.14
2023-05-14T03:33:01.571Z,5.81
2023-05-14T03:35:28.222Z,6.03
2023-05-14T03:37:54.809Z,6.29
2023-05-14T03:40:21.721Z,5.90
2023-05-14T03:42:48.591Z,5.80
2023-05-14T03:45:15.230Z,6.17
2023-05-14T03:47:41.955Z,5.85
2023-05-14T03:50:08.936Z,6.93
2023-05-14T03:52:35.591Z,6.83
2023-05-14T03:55:02.340Z,6.96
2023-05-14T03:57:29.011Z,6.96
2023-05-14T03:59:55.601Z,6.67
2023-05-14T04:02:22.315Z,6.81
2023-05-14T04:04:49.097Z,6.79
2023-05-14T04:07:15.768Z,6.46
2023-05-14T04:09:42.377Z,6.75
2023-05-14T04:12:09.133Z,6.35
2023-05-14T04:14:35.760Z,6.60
2023-05-14T04:17:02.409Z,6.71
2023-05-14T04:19:29.081Z,6.58
2023-05-14T04:21:55.734Z,6.47
2023-05-14T04:24:22.366Z,6.30
2023-05-14T04:26:48.977Z,6.10
2023-05-14T04:29:15.581Z,6.04
2023-05-14T04:31:42.222Z,5.59
2023-05-14T04:34:08.893Z,5.43
2023-05-14T04:36:35.493Z,5.72
2023-05-14T04:39:02.111Z,5.69
2023-05-14T04:41:28.708Z,5.60
2023-05-14T04:43:59.831Z,5.62
2023-05-14T04:46:26.464Z,5.26
2023-05-14T04:48:53.064Z,4.71
2023-05-14T04:51:19.646Z,4.72
2023-05-14T04:53:46.230Z,4.85
2023-05-14T04:56:12.836Z,5.21
2023-05-14T04:58:39.432Z,5.90
2023-05-14T05:01:06.149Z,5.26
2023-05-14T05:03:32.914Z,5.23
2023-05-14T05:05:59.557Z,5.29
2023-05-14T05:08:26.379Z,5.40
2023-05-14T05:10:53.068Z,5.47
2023-05-14T05:13:19.719Z,5.53
2023-05-14T05:15:46.384Z,6.10
2023-05-14T05:18:13.105Z,6.11
2023-05-14T05:20:39.746Z,7.15
2023-05-14T05:23:06.378Z,8.48
2023-05-14T05:25:32.975Z,11.85
2023-05-14T05:27:59.565Z,12.52
2023-05-14T05:30:26.328Z,13.39
2023-05-14T05:32:53.089Z,13.12
2023-05-14T05:35:19.845Z,13.97
2023-05-14T05:37:46.472Z,14.25
2023-05-14T05:40:13.070Z,14.50
2023-05-14T05:42:40.241Z,14.39
2023-05-14T05:45:07.398Z,14.00
2023-05-14T05:47:34.005Z,13.45
2023-05-14T05:50:00.780Z,12.72
2023-05-14T05:52:27.540Z,12.27
2023-05-14T05:54:54.138Z,11.99
2023-05-14T05:57:20.824Z,12.21
2023-05-14T05:59:47.459Z,11.89
2023-05-14T06:02:14.180Z,13.01
2023-05-14T06:04:40.845Z,12.56
2023-05-14T06:07:07.502Z,14.14
2023-05-14T06:09:34.171Z,12.14
2023-05-14T06:12:00.770Z,14.48
2023-05-14T06:14:27.415Z,12.84
2023-05-14T06:16:54.133Z,13.48
2023-05-14T06:19:20.883Z,15.18
2023-05-14T06:21:47.557Z,14.70
2023-05-14T06:24:14.238Z,14.77
2023-05-14T06:26:40.851Z,14.76
2023-05-14T06:29:07.449Z,14.38
2023-05-14T06:31:34.061Z,15.20
2023-05-14T06:34:00.734Z,13.06
2023-05-14T06:36:27.321Z,13.00
2023-05-14T06:38:53.953Z,13.43
2023-05-14T06:41:20.568Z,13.86
2023-05-14T06:43:47.186Z,13.76
2023-05-14T06:46:13.777Z,12.60
2023-05-14T06:48:40.445Z,13.59
2023-05-14T06:51:07.085Z,14.19
2023-05-14T06:53:33.754Z,14.38
2023-05-14T06:56:00.407Z,14.94
2023-05-14T06:58:26.995Z,13.65
2023-05-14T07:00:53.600Z,13.20
2023-05-14T07:03:20.272Z,13.47
2023-05-14T07:05:46.864Z,13.27
2023-05-14T07:08:13.553Z,13.16
2023-05-14T07:10:40.143Z,12.95
2023-05-14T07:13:06.785Z,12.81
2023-05-14T07:15:33.393Z,12.92
2023-05-14T07:18:00.180Z,11.87
2023-05-14T07:20:27.166Z,11.15
2023-05-14T07:22:53.927Z,10.85
2023-05-14T07:25:20.526Z,11.16
2023-05-14T07:27:47.113Z,10.98
2023-05-14T07:30:13.800Z,10.65
2023-05-14T07:32:41.023Z,9.91
2023-05-14T07:35:08.618Z,11.10
2023-05-14T07:37:35.249Z,12.41
2023-05-14T07:40:01.891Z,11.92
2023-05-14T07:42:35.800Z,12.04
2023-05-14T07:45:04.469Z,10.62
2023-05-14T07:47:31.190Z,10.84
2023-05-14T07:49:57.936Z,10.21
2023-05-14T07:52:24.658Z,9.83
2023-05-14T07:54:51.330Z,9.55
2023-05-14T07:57:18.716Z,9.07
2023-05-14T07:59:45.394Z,9.57
2023-05-14T08:02:12.053Z,8.17
2023-05-14T08:04:39.443Z,8.46
2023-05-14T08:07:06.187Z,10.46
2023-05-14T08:09:32.812Z,11.21
2023-05-14T08:11:59.449Z,10.83
2023-05-14T08:14:26.089Z,10.59
2023-05-14T08:16:52.812Z,10.56
2023-05-14T08:19:19.682Z,10.13
2023-05-14T08:21:46.404Z,10.98
2023-05-14T08:24:13.077Z,11.13
2023-05-14T08:26:39.683Z,9.44
2023-05-14T08:29:06.893Z,8.10
2023-05-14T08:31:34.577Z,7.61
2023-05-14T08:34:01.449Z,8.73
2023-05-14T08:36:28.082Z,9.13
2023-05-14T08:38:54.740Z,9.88
2023-05-14T08:41:21.417Z,8.65
2023-05-14T08:44:00.179Z,6.95
2023-05-14T08:46:27.199Z,6.27
2023-05-14T08:49:01.460Z,6.50
2023-05-14T08:51:28.077Z,5.85
2023-05-14T08:53:54.995Z,7.13
2023-05-14T08:56:21.660Z,8.27
2023-05-14T08:58:48.457Z,8.68
2023-05-14T09:01:15.312Z,8.11
2023-05-14T09:03:41.943Z,7.73
2023-05-14T09:06:08.751Z,7.21
2023-05-14T09:08:35.649Z,7.05
2023-05-14T09:11:04.380Z,7.44
2023-05-14T09:13:31.088Z,7.44
2023-05-14T09:15:57.872Z,8.45
2023-05-14T09:18:25.224Z,8.13
2023-05-14T09:20:52.104Z,7.91
2023-05-14T09:23:18.773Z,7.26
2023-05-14T09:25:45.440Z,6.66
2023-05-14T09:28:12.104Z,6.36
2023-05-14T09:30:38.733Z,6.44
2023-05-14T09:33:05.379Z,7.89
2023-05-14T09:35:32.153Z,7.29
2023-05-14T09:37:58.776Z,7.63
2023-05-14T09:40:25.650Z,7.76
2023-05-14T09:42:52.437Z,7.94
2023-05-14T09:45:19.109Z,8.58
2023-05-14T09:47:45.863Z,7.89
2023-05-14T09:50:12.682Z,8.75
2023-05-14T09:52:39.351Z,9.24
2023-05-14T09:55:06.473Z,8.96
2023-05-14T09:57:33.127Z,8.66
2023-05-14T09:59:59.758Z,8.31
2023-05-14T10:02:30.282Z,9.72
2023-05-14T10:04:57.805Z,9.46
2023-05-14T10:07:27.378Z,9.02
2023-05-14T10:09:59.321Z,9.64
2023-05-14T10:12:26.202Z,9.43
2023-05-14T10:14:52.803Z,9.56
2023-05-14T10:17:22.378Z,9.20
2023-05-14T10:19:53.240Z,9.30
2023-05-14T10:22:22.901Z,8.31
2023-05-14T10:24:50.209Z,8.39
2023-05-14T10:27:16.948Z,7.99
2023-05-14T10:29:43.600Z,7.36
2023-05-14T10:32:10.255Z,7.63
2023-05-14T10:34:43.200Z,7.64
2023-05-14T10:37:19.417Z,8.66
2023-05-14T10:39:55.002Z,7.31
2023-05-14T10:42:34.944Z,7.21
2023-05-14T10:45:05.616Z,7.19
2023-05-14T10:47:32.292Z,6.45
2023-05-14T10:49:59.905Z,6.05
2023-05-14T10:52:26.594Z,5.51
2023-05-14T10:54:57.118Z,5.48
2023-05-14T10:57:28.701Z,5.14
2023-05-14T10:59:56.395Z,4.89
2023-05-14T11:02:30.131Z,4.40
2023-05-14T11:05:04.082Z,4.68
2023-05-14T11:07:31.998Z,4.87
2023-05-14T11:10:15.035Z,4.25
2023-05-14T11:12:43.427Z,3.63
2023-05-14T11:15:20.669Z,3.54
2023-05-14T11:17:47.817Z,3.78
2023-05-14T11:20:14.537Z,5.43
2023-05-14T11:22:41.683Z,6.15
2023-05-14T11:25:08.826Z,4.12
2023-05-14T11:27:39.038Z,4.43
2023-05-14T11:30:06.272Z,4.27
2023-05-14T11:32:33.034Z,3.97
2023-05-14T11:34:59.687Z,3.96
2023-05-14T11:37:26.315Z,4.07
2023-05-14T11:39:54.185Z,3.76
2023-05-14T11:42:21.310Z,3.99
2023-05-14T11:44:49.295Z,4.05
2023-05-14T11:47:17.056Z,4.06
2023-05-14T11:49:43.728Z,4.36
2023-05-14T11:52:10.493Z,3.92
2023-05-14T11:54:37.169Z,3.71
2023-05-14T11:57:08.514Z,3.72
2023-05-14T11:59:35.153Z,3.57
2023-05-14T12:02:01.980Z,3.71
2023-05-14T12:04:28.649Z,3.61
2023-05-14T12:06:57.337Z,3.73
2023-05-14T12:09:23.984Z,3.57
2023-05-14T12:11:50.994Z,3.69
2023-05-14T12:14:19.971Z,3.42
2023-05-14T12:16:46.808Z,3.96
2023-05-14T12:19:17.227Z,3.14
2023-05-14T12:21:44.251Z,3.09
2023-05-14T12:24:12.266Z,2.96
2023-05-14T12:26:38.929Z,2.84
2023-05-14T12:29:05.580Z,2.93
2023-05-14T12:31:33.277Z,2.96
2023-05-14T12:33:59.994Z,2.80
2023-05-14T12:36:26.665Z,2.56
2023-05-14T12:38:59.940Z,2.72
2023-05-14T12:41:26.611Z,3.07
2023-05-14T12:43:53.261Z,3.32
2023-05-14T12:46:19.979Z,3.17
2023-05-14T12:48:46.741Z,3.86
2023-05-14T12:51:13.410Z,7.61
2023-05-14T12:53:40.123Z,4.98
2023-05-14T12:56:06.829Z,3.96
2023-05-14T12:58:33.571Z,3.96
2023-05-14T13:01:00.232Z,3.18
2023-05-14T13:03:26.850Z,3.43
2023-05-14T13:05:53.758Z,2.84
2023-05-14T13:08:23.806Z,2.89
2023-05-14T13:10:53.916Z,3.12
2023-05-14T13:13:20.616Z,3.00
2023-05-14T13:15:47.242Z,2.61
2023-05-14T13:18:14.270Z,2.41
2023-05-14T13:20:43.102Z,2.14
2023-05-14T13:23:09.968Z,2.34
2023-05-14T13:25:36.623Z,2.13
2023-05-14T13:28:03.289Z,2.24
2023-05-14T13:30:29.970Z,2.31
2023-05-14T13:32:56.613Z,3.73
2023-05-14T13:35:23.361Z,12.29
2023-05-14T13:37:50.178Z,3.95
2023-05-14T13:40:16.810Z,7.05
2023-05-14T13:42:44.537Z,6.23
2023-05-14T13:45:11.341Z,3.31
2023-05-14T13:47:38.551Z,2.94
2023-05-14T13:50:07.926Z,3.07
2023-05-14T13:52:34.709Z,2.81
2023-05-14T13:55:01.373Z,3.02
2023-05-14T13:57:28.066Z,2.79
2023-05-14T13:59:54.761Z,2.71
2023-05-14T14:02:21.499Z,2.70
2023-05-14T14:04:48.241Z,2.50
2023-05-14T14:07:14.921Z,2.60
2023-05-14T14:09:41.770Z,3.22
2023-05-14T14:12:09.094Z,3.72
2023-05-14T14:14:35.786Z,2.37
2023-05-14T14:17:02.522Z,3.79
2023-05-14T14:19:29.872Z,3.56
2023-05-14T14:21:56.537Z,3.24
2023-05-14T14:24:23.300Z,2.99
2023-05-14T14:26:51.783Z,2.28
2023-05-14T14:29:18.498Z,12.06
2023-05-14T14:31:45.190Z,7.55
2023-05-14T14:34:11.970Z,2.85
2023-05-14T14:36:38.561Z,2.37
2023-05-14T14:39:05.194Z,2.32
2023-05-14T14:41:31.838Z,2.12
2023-05-14T14:43:58.484Z,2.12
2023-05-14T14:46:25.141Z,2.22
2023-05-14T14:48:51.889Z,2.17
2023-05-14T14:51:18.571Z,2.22
2023-05-14T14:53:45.250Z,3.51
2023-05-14T14:56:11.929Z,3.19
2023-05-14T14:58:38.571Z,2.29
2023-05-14T15:01:05.346Z,2.68
2023-05-14T15:03:32.176Z,3.55
2023-05-14T15:05:58.997Z,4.16
2023-05-14T15:08:26.222Z,4.47
2023-05-14T15:10:52.944Z,4.17
2023-05-14T15:13:19.628Z,3.21
2023-05-14T15:15:46.342Z,3.15
2023-05-14T15:18:13.010Z,2.08
2023-05-14T15:20:39.768Z,1.99
2023-05-14T15:23:06.411Z,1.88
2023-05-14T15:25:33.060Z,1.88
2023-05-14T15:27:59.721Z,1.97
2023-05-14T15:30:26.391Z,1.98
2023-05-14T15:32:53.083Z,2.76
2023-05-14T15:35:19.988Z,3.24
2023-05-14T15:37:46.647Z,2.75
2023-05-14T15:40:13.287Z,2.23
2023-05-14T15:42:41.112Z,2.03
2023-05-14T15:45:08.541Z,1.75
2023-05-14T15:47:35.958Z,1.99
2023-05-14T15:50:02.653Z,2.49
2023-05-14T15:52:29.279Z,1.98
2023-05-14T15:54:56.001Z,2.58
2023-05-14T15:57:23.192Z,3.65
2023-05-14T15:59:49.964Z,2.14
2023-05-14T16:02:16.574Z,1.99
2023-05-14T16:04:43.178Z,2.31
2023-05-14T16:07:09.970Z,2.43
2023-05-14T16:09:36.869Z,2.38
2023-05-14T16:12:04.831Z,2.22
2023-05-14T16:14:34.252Z,2.32
2023-05-14T16:17:00.945Z,2.57
2023-05-14T16:19:27.836Z,2.94
2023-05-14T16:21:54.484Z,2.88
2023-05-14T16:24:21.128Z,2.21
2023-05-14T16:26:47.756Z,2.11
2023-05-14T16:29:14.347Z,2.45
2023-05-14T16:31:40.972Z,2.50
2023-05-14T16:34:07.591Z,2.13
2023-05-14T16:36:34.213Z,1.95
2023-05-14T16:41:30.300Z,2.61
2023-05-14T16:43:56.942Z,2.89
2023-05-14T16:46:23.634Z,2.39
2023-05-14T16:48:50.292Z,2.65
2023-05-14T16:51:16.961Z,2.59
2023-05-14T16:53:43.578Z,2.24
2023-05-14T16:56:10.211Z,2.65
2023-05-14T16:58:36.861Z,2.69
2023-05-14T17:01:03.517Z,2.61
2023-05-14T17:03:30.128Z,2.96
2023-05-14T17:05:56.714Z,2.59
2023-05-14T17:08:23.326Z,2.58
2023-05-14T17:10:49.948Z,2.45
2023-05-14T17:13:16.574Z,2.20
2023-05-14T17:15:43.276Z,2.71
2023-05-14T17:18:09.963Z,2.59
2023-05-14T17:20:36.640Z,2.39
2023-05-14T17:23:03.255Z,2.18
2023-05-14T17:25:29.900Z,2.05
2023-05-14T17:27:56.558Z,2.52
2023-05-14T17:30:23.180Z,2.25
2023-05-14T17:32:51.103Z,2.31
2023-05-14T17:35:18.003Z,2.21
2023-05-14T17:37:44.683Z,2.23
2023-05-14T17:40:11.757Z,2.33
2023-05-14T17:42:38.399Z,2.60
2023-05-14T17:45:05.498Z,8.17
2023-05-14T17:47:32.239Z,8.89
2023-05-14T17:49:58.936Z,16.72
2023-05-14T17:52:25.619Z,21.76
2023-05-14T17:54:52.282Z,4.97
2023-05-14T17:57:18.939Z,2.56
2023-05-14T17:59:45.616Z,15.07
2023-05-14T18:02:12.260Z,5.30
2023-05-14T18:04:38.869Z,3.32
2023-05-14T18:07:05.470Z,4.11
2023-05-14T18:09:32.141Z,3.49
2023-05-14T18:11:58.779Z,3.18
2023-05-14T18:14:25.440Z,3.56
2023-05-14T18:16:52.151Z,3.29
2023-05-14T18:19:19.484Z,5.37
2023-05-14T18:21:46.096Z,9.60
2023-05-14T18:24:12.728Z,5.41
2023-05-14T18:26:39.429Z,15.80
2023-05-14T18:29:06.082Z,3.66
2023-05-14T18:31:32.764Z,2.63
2023-05-14T18:33:59.406Z,1.70
2023-05-14T18:36:26.030Z,2.14
2023-05-14T18:38:52.696Z,2.09
2023-05-14T18:41:19.325Z,2.24
2023-05-14T18:43:45.964Z,1.81
2023-05-14T18:46:12.657Z,1.79
2023-05-14T18:48:39.866Z,1.91
2023-05-14T18:51:06.535Z,2.25
2023-05-14T18:53:33.144Z,2.32
2023-05-14T18:55:59.928Z,2.16
2023-05-14T18:58:26.604Z,2.01
2023-05-14T19:00:53.295Z,2.14
2023-05-14T19:03:20.288Z,2.31
2023-05-14T19:05:46.998Z,1.95
2023-05-14T19:08:14.068Z,1.96
2023-05-14T19:10:40.692Z,1.81
2023-05-14T19:13:07.338Z,2.00
2023-05-14T19:15:33.976Z,2.38
2023-05-14T19:18:00.749Z,1.94
2023-05-14T19:20:27.490Z,2.00
2023-05-14T19:22:54.092Z,1.47
2023-05-14T19:25:20.746Z,1.63
2023-05-14T19:27:47.341Z,1.43
2023-05-14T19:30:13.982Z,1.39
2023-05-14T19:32:40.821Z,1.15
2023-05-14T19:35:07.647Z,1.29
2023-05-14T19:37:34.276Z,1.24
2023-05-14T19:40:00.859Z,1.48
2023-05-14T19:42:27.469Z,1.35
2023-05-14T19:44:54.059Z,1.33
2023-05-14T19:47:20.645Z,1.63
2023-05-14T19:49:48.526Z,1.45
2023-05-14T19:52:15.193Z,3.32
2023-05-14T19:54:41.840Z,2.69
2023-05-14T19:57:09.208Z,2.21
2023-05-14T19:59:35.842Z,2.40
2023-05-14T20:02:02.542Z,2.12
2023-05-14T20:04:29.207Z,2.35
2023-05-14T20:06:55.855Z,2.82
2023-05-14T20:09:22.692Z,2.57
2023-05-14T20:11:49.319Z,2.47
2023-05-14T20:14:16.002Z,2.28
2023-05-14T20:16:42.656Z,5.10
2023-05-14T20:19:09.338Z,7.25
2023-05-14T20:21:36.193Z,26.91
2023-05-14T20:24:02.848Z,33.40
2023-05-14T20:26:29.497Z,33.09
2023-05-14T20:28:56.169Z,80.66
2023-05-14T20:31:22.940Z,41.63
2023-05-14T20:33:49.663Z,46.22
2023-05-14T20:36:16.328Z,12.55
2023-05-14T20:38:42.993Z,18.08
2023-05-14T20:41:09.643Z,63.59
2023-05-14T20:43:36.353Z,38.41
2023-05-14T20:46:02.972Z,33.95
2023-05-14T20:48:29.645Z,43.92
2023-05-14T20:50:56.283Z,14.73
2023-05-14T20:53:22.910Z,15.05
2023-05-14T20:55:49.527Z,10.70
2023-05-14T20:58:16.166Z,11.67
2023-05-14T21:00:42.781Z,8.65
2023-05-14T21:03:09.813Z,4.65
2023-05-14T21:05:36.696Z,4.05
2023-05-14T21:08:03.350Z,3.25
2023-05-14T21:10:29.982Z,28.03
2023-05-14T21:12:56.691Z,22.31
2023-05-14T21:15:23.683Z,6.50
2023-05-14T21:17:50.656Z,3.26
2023-05-14T21:20:17.310Z,4.30
2023-05-14T21:22:43.964Z,2.76
2023-05-14T21:25:10.736Z,3.83
2023-05-14T21:27:37.402Z,4.06
2023-05-14T21:30:04.314Z,4.17
2023-05-14T21:32:31.023Z,3.78
2023-05-14T21:34:57.616Z,3.18
2023-05-14T21:37:24.234Z,3.23
2023-05-14T21:39:50.942Z,3.55
2023-05-14T21:42:17.538Z,3.20
2023-05-14T21:44:44.170Z,4.03
2023-05-14T21:47:10.821Z,3.78
2023-05-14T21:49:37.413Z,3.36
2023-05-14T21:52:04.222Z,5.76
2023-05-14T21:54:30.868Z,4.32
2023-05-14T21:56:57.560Z,4.00
2023-05-14T21:59:24.201Z,3.15
2023-05-14T22:02:06.272Z,3.13
2023-05-14T22:04:33.883Z,3.60
2023-05-14T22:07:00.519Z,9.34
2023-05-14T22:09:27.450Z,7.21
2023-05-14T22:11:54.118Z,4.27
2023-05-14T22:14:20.725Z,6.45
2023-05-14T22:16:47.406Z,4.60
2023-05-14T22:19:15.869Z,3.84
2023-05-14T22:21:42.563Z,2.93
2023-05-14T22:24:09.168Z,4.40
2023-05-14T22:26:35.816Z,4.41
2023-05-14T22:29:02.447Z,4.17
2023-05-14T22:31:29.359Z,4.53
2023-05-14T22:33:56.099Z,3.99
2023-05-14T22:36:22.744Z,4.16
2023-05-14T22:38:49.429Z,4.60
2023-05-14T22:41:16.073Z,4.05
2023-05-14T22:43:42.715Z,4.06
2023-05-14T22:46:09.356Z,3.37
2023-05-14T22:48:35.982Z,3.02
2023-05-14T22:51:02.575Z,3.23
2023-05-14T22:53:29.177Z,2.90
2023-05-14T22:55:55.809Z,2.76
2023-05-14T22:58:22.428Z,2.57
2023-05-14T23:00:49.034Z,2.54
2023-05-14T23:03:15.685Z,2.48
2023-05-14T23:05:42.332Z,2.34
2023-05-14T23:08:08.970Z,2.22
2023-05-14T23:10:35.665Z,2.74
2023-05-14T23:13:03.627Z,2.99
2023-05-14T23:15:30.263Z,3.50
2023-05-14T23:17:56.953Z,3.08
2023-05-14T23:20:23.615Z,2.49
2023-05-14T23:22:50.137Z,2.55
2023-05-14T23:25:16.749Z,2.48
2023-05-14T23:27:43.372Z,2.57
2023-05-14T23:30:10.471Z,2.13
2023-05-14T23:32:37.070Z,2.07
2023-05-14T23:35:03.911Z,2.02
2023-05-14T23:37:30.597Z,2.25
2023-05-14T23:39:57.199Z,2.14
2023-05-14T23:42:23.804Z,2.14
2023-05-14T23:44:50.428Z,2.22
2023-05-14T23:47:16.974Z,2.27
2023-05-14T23:49:43.525Z,2.21
2023-05-14T23:52:10.061Z,2.18
2023-05-14T23:54:36.694Z,2.01
2023-05-14T23:57:03.335Z,1.94
2023-05-14T23:59:29.945Z,2.15
